Time;durP1;ratioP1;P1;durP2;ratioP2;P2;SDS_P1;SDS_P2;PMS_P1;PMS_P2;Temp;Humidity;BMP_temperature;BMP_pressure;BME280_temperature;BME280_humidity;BME280_pressure;Samples;Min_cycle;Max_cycle;Signal;HPM_P1;HPM_P2
2023/01/24 00:01:17;;;;;;;26.27;13.80;;;3.80;99.90;;;;;;5034797;28;20078;-77
2023/01/24 00:03:43;;;;;;;29.10;15.18;;;3.90;99.90;;;;;;5051864;28;20047;-77
2023/01/24 00:06:09;;;;;;;27.08;15.30;;;3.80;99.90;;;;;;5059396;28;20033;-78
2023/01/24 00:08:34;;;;;;;30.05;16.08;;;3.80;99.90;;;;;;5051346;28;20055;-78
2023/01/24 00:11:11;;;;;;;26.45;15.23;;;3.80;99.90;;;;;;5035377;28;20098;-77
2023/01/24 00:13:37;;;;;;;28.58;15.77;;;3.80;99.90;;;;;;5064574;28;20044;-78
2023/01/24 00:16:12;;;;;;;26.73;15.73;;;3.80;99.90;;;;;;5061634;28;20472;-78
2023/01/24 00:18:38;;;;;;;27.40;15.90;;;3.80;99.90;;;;;;5065706;28;20041;-78
2023/01/24 00:21:08;;;;;;;26.67;15.65;;;3.80;99.90;;;;;;5062495;28;20454;-77
2023/01/24 00:23:37;;;;;;;28.80;15.77;;;3.90;99.90;;;;;;5056148;28;20044;-77
2023/01/24 00:26:04;;;;;;;29.20;15.52;;;3.80;99.90;;;;;;5056542;28;20512;-78
2023/01/24 00:28:30;;;;;;;26.42;15.75;;;3.80;99.90;;;;;;5060617;28;20079;-78
2023/01/24 00:30:56;;;;;;;27.08;15.13;;;3.80;99.90;;;;;;5063907;28;20036;-77
2023/01/24 00:33:21;;;;;;;28.30;14.70;;;3.80;99.90;;;;;;5042786;28;20041;-78
2023/01/24 00:35:50;;;;;;;27.77;15.07;;;3.80;99.90;;;;;;5065850;28;20068;-77
2023/01/24 00:38:16;;;;;;;25.85;15.05;;;3.80;99.90;;;;;;5050447;28;20060;-78
2023/01/24 00:40:41;;;;;;;28.30;16.15;;;3.80;99.90;;;;;;5056668;28;20125;-79
2023/01/24 00:43:07;;;;;;;28.10;16.48;;;3.80;99.90;;;;;;5051378;28;20045;-77
2023/01/24 00:45:36;;;;;;;31.05;15.98;;;3.80;99.90;;;;;;5059571;28;20068;-78
2023/01/24 00:48:02;;;;;;;29.42;15.77;;;3.80;99.90;;;;;;5064854;28;20130;-77
2023/01/24 00:50:28;;;;;;;28.88;15.63;;;3.80;99.90;;;;;;5061126;28;20137;-78
2023/01/24 00:52:54;;;;;;;31.35;16.00;;;3.80;99.90;;;;;;5054541;28;20124;-79
2023/01/24 00:55:19;;;;;;;27.27;15.73;;;3.80;99.90;;;;;;5034004;28;20041;-78
2023/01/24 00:57:45;;;;;;;27.45;15.32;;;3.80;99.90;;;;;;5059578;28;20481;-77
2023/01/24 01:00:12;;;;;;;29.02;15.30;;;3.70;99.90;;;;;;5062449;28;20040;-77
2023/01/24 01:02:37;;;;;;;27.30;14.70;;;3.80;99.90;;;;;;5062001;28;20438;-77
2023/01/24 01:05:03;;;;;;;32.08;15.93;;;3.80;99.90;;;;;;5045172;28;20045;-77
2023/01/24 01:07:29;;;;;;;26.75;15.38;;;3.70;99.90;;;;;;5055941;28;20037;-77
2023/01/24 01:09:54;;;;;;;30.63;16.70;;;3.70;99.90;;;;;;5062486;28;20095;-77
2023/01/24 01:12:20;;;;;;;26.88;15.68;;;3.80;99.90;;;;;;5051249;28;20120;-77
2023/01/24 01:14:46;;;;;;;29.77;15.55;;;3.80;99.90;;;;;;5053922;28;20529;-77
2023/01/24 01:17:11;;;;;;;31.33;15.40;;;3.80;99.90;;;;;;5062689;28;20039;-77
2023/01/24 01:19:37;;;;;;;27.65;14.93;;;3.80;99.90;;;;;;5037863;28;20037;-77
2023/01/24 01:22:02;;;;;;;27.92;15.40;;;3.80;99.90;;;;;;5052631;28;20048;-77
2023/01/24 01:24:28;;;;;;;30.10;16.05;;;3.80;99.90;;;;;;5061774;28;20080;-77
2023/01/24 01:26:54;;;;;;;26.98;15.38;;;3.80;99.90;;;;;;5053963;28;20155;-77
2023/01/24 01:29:19;;;;;;;28.45;15.82;;;3.80;99.90;;;;;;5034256;28;20044;-78
2023/01/24 01:31:45;;;;;;;26.73;15.55;;;3.80;99.90;;;;;;5048686;28;20041;-78
2023/01/24 01:34:11;;;;;;;28.25;15.60;;;3.80;99.90;;;;;;5050586;28;20040;-77
2023/01/24 01:36:36;;;;;;;25.48;15.50;;;3.80;99.90;;;;;;5037898;28;20059;-77
2023/01/24 01:39:02;;;;;;;28.25;15.30;;;3.80;99.90;;;;;;5056391;28;20037;-77
2023/01/24 01:41:28;;;;;;;26.67;15.10;;;3.80;99.90;;;;;;5056214;28;20087;-77
2023/01/24 01:46:44;;;;;;;24.77;14.65;;;3.80;99.90;;;;;;5059488;28;20064;-78
2023/01/24 01:49:20;;;;;;;27.50;14.38;;;3.80;99.90;;;;;;5049355;28;20040;-78
2023/01/24 01:51:50;;;;;;;27.23;14.95;;;3.80;99.90;;;;;;5058351;28;20051;-78
2023/01/24 01:54:21;;;;;;;25.85;14.85;;;3.80;99.90;;;;;;5057430;28;20024;-78
2023/01/24 01:56:55;;;;;;;26.17;13.60;;;3.80;99.90;;;;;;5050079;28;20033;-77
2023/01/24 01:59:26;;;;;;;25.92;14.15;;;3.80;99.90;;;;;;5035294;28;20481;-77
2023/01/24 02:01:54;;;;;;;24.80;13.77;;;3.80;99.90;;;;;;5047455;28;20142;-77
2023/01/24 02:04:29;;;;;;;22.17;12.55;;;3.80;99.90;;;;;;5066894;28;20044;-77
2023/01/24 02:07:04;;;;;;;19.80;11.73;;;3.90;99.90;;;;;;5067166;28;20442;-77
2023/01/24 02:09:34;;;;;;;20.08;11.38;;;3.80;99.90;;;;;;5062184;28;20041;-77
2023/01/24 02:12:08;;;;;;;17.95;10.70;;;3.80;99.90;;;;;;5058091;28;20667;-77
2023/01/24 02:17:20;;;;;;;18.95;10.73;;;3.80;99.90;;;;;;5056659;28;20032;-77
2023/01/24 02:19:55;;;;;;;19.73;10.38;;;3.80;99.90;;;;;;5060968;28;20091;-76
2023/01/24 02:22:37;;;;;;;21.52;11.95;;;3.80;99.90;;;;;;5049263;28;20068;-77
2023/01/24 02:25:16;;;;;;;;;;;3.80;99.90;;;;;;5041084;28;20115;-77
2023/01/24 02:27:42;;;;;;;21.17;11.95;;;3.80;99.90;;;;;;5052399;28;20296;-77
2023/01/24 02:30:08;;;;;;;21.58;12.02;;;4.10;99.90;;;;;;5055810;28;20037;-77
2023/01/24 02:32:34;;;;;;;20.40;11.45;;;3.80;99.90;;;;;;5058090;28;20108;-77
2023/01/24 02:34:59;;;;;;;21.77;11.02;;;3.80;99.90;;;;;;5052011;28;20480;-77
2023/01/24 02:37:25;;;;;;;18.92;11.15;;;3.80;99.90;;;;;;5035761;28;20033;-77
2023/01/24 02:39:56;;;;;;;21.05;12.20;;;3.70;99.90;;;;;;5042828;28;20505;-76
2023/01/24 02:42:27;;;;;;;20.75;12.23;;;3.80;99.90;;;;;;5066207;28;20048;-77
2023/01/24 02:44:59;;;;;;;21.70;11.93;;;3.80;99.90;;;;;;5055388;28;20043;-77
2023/01/24 02:47:32;;;;;;;19.92;11.88;;;3.80;99.90;;;;;;5065315;28;20051;-78
2023/01/24 02:50:01;;;;;;;21.38;11.90;;;3.80;99.90;;;;;;5052060;28;20063;-77
2023/01/24 02:55:11;;;;;;;21.73;11.98;;;3.80;99.90;;;;;;5058144;28;20040;-77
2023/01/24 03:00:24;;;;;;;21.23;12.27;;;3.80;99.90;;;;;;5052851;28;20044;-78
2023/01/24 03:02:50;;;;;;;21.58;12.88;;;3.80;99.90;;;;;;5053374;28;20037;-77
2023/01/24 03:05:16;;;;;;;19.48;11.80;;;3.70;99.90;;;;;;5056396;28;20051;-77
2023/01/24 03:07:43;;;;;;;24.63;12.93;;;4.00;99.90;;;;;;5057615;28;20036;-77
2023/01/24 03:10:11;;;;;;;21.05;12.57;;;3.80;99.90;;;;;;5058542;28;20056;-77
2023/01/24 03:34:32;;;;;;;23.98;13.57;;;3.70;99.90;;;;;;5051481;28;20471;-78
2023/01/24 03:36:59;;;;;;;24.92;13.23;;;3.80;99.90;;;;;;5033289;28;20033;-77
2023/01/24 03:42:08;;;;;;;22.25;12.75;;;3.70;99.90;;;;;;5067862;28;20083;-78
2023/01/24 03:44:34;;;;;;;22.73;12.57;;;3.70;99.90;;;;;;5058269;28;20040;-77
2023/01/24 03:47:00;;;;;;;21.70;12.32;;;3.80;99.90;;;;;;5057048;28;20101;-77
2023/01/24 03:52:26;;;;;;;20.98;11.73;;;3.70;99.90;;;;;;5064799;28;20048;-77
2023/01/24 03:54:52;;;;;;;22.92;12.05;;;3.70;99.90;;;;;;5055977;28;20409;-77
2023/01/24 03:57:17;;;;;;;23.52;12.07;;;3.70;99.90;;;;;;5068973;28;20033;-77
2023/01/24 03:59:43;;;;;;;21.45;12.23;;;3.70;99.90;;;;;;5063419;28;20040;-77
2023/01/24 04:02:09;;;;;;;20.27;12.40;;;3.80;99.90;;;;;;5065458;28;20037;-77
2023/01/24 04:07:19;;;;;;;21.83;12.20;;;3.70;99.90;;;;;;5042456;28;20141;-77
2023/01/24 04:09:44;;;;;;;24.25;12.25;;;3.70;99.90;;;;;;5057682;28;20083;-78
2023/01/24 04:12:10;;;;;;;24.65;12.52;;;3.70;99.90;;;;;;5074407;28;20040;-77
2023/01/24 04:14:36;;;;;;;21.27;11.48;;;3.70;99.90;;;;;;5055791;28;20085;-77
2023/01/24 04:17:01;;;;;;;21.88;12.18;;;3.70;99.90;;;;;;5057780;28;20071;-77
2023/01/24 04:19:27;;;;;;;19.85;11.25;;;3.70;99.90;;;;;;5060301;28;20472;-78
2023/01/24 04:21:53;;;;;;;20.80;12.32;;;3.70;99.90;;;;;;5056967;28;20040;-77
2023/01/24 04:24:19;;;;;;;21.23;11.52;;;3.70;99.90;;;;;;5063775;28;20037;-77
2023/01/24 04:26:44;;;;;;;19.38;11.00;;;3.70;99.90;;;;;;5064785;28;20493;-77
2023/01/24 04:29:10;;;;;;;19.63;10.90;;;3.70;99.90;;;;;;5051196;28;20078;-77
2023/01/24 04:31:35;;;;;;;17.27;10.50;;;3.70;99.90;;;;;;5054721;28;20527;-77
2023/01/24 04:34:01;;;;;;;22.40;11.38;;;3.70;99.90;;;;;;5076084;28;20043;-76
2023/01/24 04:36:26;;;;;;;17.88;10.80;;;3.70;99.90;;;;;;5068817;28;20032;-77
2023/01/24 04:38:54;;;;;;;20.85;11.13;;;3.70;99.90;;;;;;5055510;28;20059;-76
2023/01/24 04:41:20;;;;;;;20.60;11.60;;;3.70;99.90;;;;;;5055050;28;20473;-77
2023/01/24 04:43:45;;;;;;;18.05;10.43;;;3.70;99.90;;;;;;5033771;28;20053;-77
2023/01/24 04:46:11;;;;;;;20.05;10.15;;;3.70;99.90;;;;;;5064756;28;20037;-77
2023/01/24 04:48:37;;;;;;;18.70;10.57;;;3.70;99.90;;;;;;5055196;28;20041;-77
2023/01/24 04:51:02;;;;;;;18.55;11.00;;;3.70;99.90;;;;;;5053833;28;20052;-77
2023/01/24 04:53:29;;;;;;;18.48;10.98;;;3.70;99.90;;;;;;5057000;28;20259;-76
2023/01/24 04:56:02;;;;;;;19.50;11.00;;;3.70;99.90;;;;;;5049191;28;20040;-75
2023/01/24 04:58:28;;;;;;;19.95;10.50;;;3.70;99.90;;;;;;5054843;28;20029;-75
2023/01/24 05:00:56;;;;;;;18.45;10.80;;;3.70;99.90;;;;;;5063957;28;20037;-75
2023/01/24 05:03:22;;;;;;;19.33;11.13;;;3.70;99.90;;;;;;5053485;28;20447;-76
2023/01/24 05:05:52;;;;;;;15.60;9.35;;;3.70;99.90;;;;;;5052656;28;20049;-75
2023/01/24 05:08:18;;;;;;;18.05;9.93;;;3.70;99.90;;;;;;5028447;28;20067;-76
2023/01/24 05:10:44;;;;;;;15.25;9.45;;;3.70;99.90;;;;;;5052672;28;20042;-75
2023/01/24 05:13:10;;;;;;;15.55;9.32;;;3.70;99.90;;;;;;5050149;28;20045;-75
2023/01/24 05:15:36;;;;;;;15.88;9.25;;;3.60;99.90;;;;;;5055013;28;20055;-76
2023/01/24 05:18:02;;;;;;;15.77;8.80;;;3.60;99.90;;;;;;5054728;28;20033;-76
2023/01/24 05:20:28;;;;;;;15.70;9.43;;;3.60;99.90;;;;;;5032982;28;20040;-76
2023/01/24 05:22:58;;;;;;;15.57;8.85;;;3.60;99.90;;;;;;5037859;28;20049;-76
2023/01/24 05:25:24;;;;;;;14.73;8.68;;;3.60;99.90;;;;;;5044316;28;20040;-75
2023/01/24 05:27:50;;;;;;;16.17;8.55;;;3.80;99.90;;;;;;5055789;28;20468;-75
2023/01/24 05:30:16;;;;;;;15.00;8.70;;;3.60;99.90;;;;;;5050053;28;20068;-75
2023/01/24 05:32:42;;;;;;;16.08;8.70;;;3.60;99.90;;;;;;5059414;28;20108;-75
2023/01/24 05:35:08;;;;;;;17.20;9.45;;;3.60;99.90;;;;;;5046393;28;20109;-75
2023/01/24 05:37:38;;;;;;;17.70;9.48;;;3.60;99.90;;;;;;5050934;28;20514;-77
2023/01/24 05:40:05;;;;;;;16.35;8.82;;;4.00;99.90;;;;;;5054224;28;20087;-77
2023/01/24 05:42:31;;;;;;;17.08;9.25;;;3.60;99.90;;;;;;5057840;28;20037;-77
2023/01/24 05:44:57;;;;;;;16.15;8.85;;;3.60;99.90;;;;;;5040566;28;20048;-78
2023/01/24 05:47:23;;;;;;;16.35;10.20;;;3.60;99.90;;;;;;5061059;28;20489;-78
2023/01/24 05:49:49;;;;;;;15.10;9.02;;;3.60;99.90;;;;;;5062485;28;20052;-77
2023/01/24 05:52:20;;;;;;;15.07;9.18;;;3.60;99.90;;;;;;5042593;28;20052;-77
2023/01/24 05:54:47;;;;;;;18.23;9.85;;;3.60;99.90;;;;;;5048876;28;20037;-79
2023/01/24 05:57:12;;;;;;;15.80;8.85;;;3.50;99.90;;;;;;5045615;28;20497;-77
2023/01/24 05:59:38;;;;;;;17.48;9.10;;;3.50;99.90;;;;;;5049999;28;20070;-77
2023/01/24 06:02:04;;;;;;;15.95;9.48;;;3.60;99.90;;;;;;5051981;28;20044;-77
2023/01/24 06:04:29;;;;;;;15.25;9.18;;;3.60;99.90;;;;;;5058563;28;20385;-77
2023/01/24 06:06:55;;;;;;;17.33;9.18;;;3.60;99.90;;;;;;5056082;28;20041;-77
2023/01/24 06:09:21;;;;;;;15.23;9.65;;;3.60;99.90;;;;;;5051015;28;20043;-78
2023/01/24 06:11:47;;;;;;;15.73;9.23;;;3.50;99.90;;;;;;5031203;28;20037;-77
2023/01/24 06:14:12;;;;;;;17.13;9.35;;;3.60;99.90;;;;;;5048590;28;20403;-77
2023/01/24 06:16:39;;;;;;;17.10;9.57;;;3.60;99.90;;;;;;5035008;28;20493;-77
2023/01/24 06:19:05;;;;;;;16.15;9.18;;;3.60;99.90;;;;;;5056694;28;20462;-77
2023/01/24 06:21:42;;;;;;;14.68;9.05;;;3.60;99.90;;;;;;5056092;28;20076;-78
2023/01/24 06:24:26;;;;;;;15.82;9.52;;;3.60;99.90;;;;;;5049462;28;20051;-77
2023/01/24 06:26:52;;;;;;;16.55;9.63;;;3.60;99.90;;;;;;5048433;28;20171;-78
2023/01/24 06:29:29;;;;;;;16.17;9.73;;;3.50;99.90;;;;;;5052176;28;20496;-80
2023/01/24 06:32:10;;;;;;;16.65;9.18;;;3.50;99.90;;;;;;5042008;28;20517;-79
2023/01/24 06:35:00;;;;;;;17.65;8.75;;;3.50;99.90;;;;;;5054636;28;20033;-80
2023/01/24 06:37:38;;;;;;;14.25;8.75;;;3.50;99.90;;;;;;5044646;28;20037;-77
2023/01/24 06:40:10;;;;;;;16.45;9.40;;;3.50;99.90;;;;;;5047955;28;20052;-78
2023/01/24 06:42:36;;;;;;;16.37;9.80;;;3.50;99.90;;;;;;5049223;28;20044;-78
2023/01/24 06:45:01;;;;;;;17.25;9.70;;;3.50;99.90;;;;;;5043996;28;20053;-79
2023/01/24 06:47:30;;;;;;;15.82;9.13;;;3.60;99.90;;;;;;5044577;28;20133;-78
2023/01/24 06:49:55;;;;;;;17.02;10.15;;;3.80;99.90;;;;;;5045469;28;20221;-78
2023/01/24 06:52:21;;;;;;;18.33;10.15;;;3.50;99.90;;;;;;5037327;28;20068;-79
2023/01/24 06:54:47;;;;;;;17.65;10.05;;;3.50;99.90;;;;;;5052291;28;20045;-78
2023/01/24 06:57:12;;;;;;;16.27;9.75;;;3.50;99.90;;;;;;5058033;28;20031;-78
2023/01/24 06:59:38;;;;;;;18.00;10.02;;;3.50;99.90;;;;;;5058518;28;20408;-79
2023/01/24 07:02:04;;;;;;;19.00;10.10;;;3.50;99.90;;;;;;5057340;28;20451;-78
2023/01/24 07:04:29;;;;;;;16.60;9.70;;;3.50;99.90;;;;;;5046098;28;20048;-79
2023/01/24 07:06:55;;;;;;;16.90;10.20;;;3.50;99.90;;;;;;5039250;28;20041;-79
2023/01/24 07:09:21;;;;;;;18.63;10.32;;;3.50;99.90;;;;;;5054083;28;20044;-78
2023/01/24 07:11:54;;;;;;;16.30;9.57;;;3.50;99.90;;;;;;5042505;28;20076;-78
2023/01/24 07:14:20;;;;;;;18.85;10.35;;;3.50;99.90;;;;;;5057668;28;20052;-77
2023/01/24 07:16:45;;;;;;;18.25;10.10;;;3.50;99.90;;;;;;5062640;28;20493;-78
2023/01/24 07:19:15;;;;;;;16.58;9.85;;;3.50;99.90;;;;;;5060796;28;20041;-78
2023/01/24 07:21:41;;;;;;;16.13;10.00;;;3.50;99.90;;;;;;5063465;28;20037;-78
2023/01/24 07:24:16;;;;;;;16.88;9.50;;;3.50;99.90;;;;;;5042310;28;20029;-77
2023/01/24 07:26:42;;;;;;;16.38;9.75;;;3.50;99.90;;;;;;5043474;28;20075;-77
2023/01/24 07:29:08;;;;;;;15.52;9.38;;;3.50;99.90;;;;;;5042369;28;20080;-77
2023/01/24 07:31:33;;;;;;;16.73;9.50;;;3.40;99.90;;;;;;5039941;28;20030;-77
2023/01/24 07:33:59;;;;;;;17.45;10.38;;;3.50;99.90;;;;;;5043469;28;20406;-77
2023/01/24 07:36:25;;;;;;;19.23;10.30;;;3.50;99.90;;;;;;5044568;28;20040;-77
2023/01/24 07:38:54;;;;;;;16.40;9.65;;;3.50;99.90;;;;;;5040606;28;20044;-77
2023/01/24 07:41:20;;;;;;;17.80;10.05;;;3.50;99.90;;;;;;5040661;28;20037;-77
2023/01/24 07:43:45;;;;;;;18.88;10.48;;;3.40;99.90;;;;;;5041022;28;20036;-77
2023/01/24 07:46:11;;;;;;;19.52;10.43;;;3.40;99.90;;;;;;5042967;28;20127;-77
2023/01/24 07:48:36;;;;;;;18.48;10.30;;;3.40;99.90;;;;;;5048714;28;20096;-78
2023/01/24 07:51:02;;;;;;;16.88;10.10;;;3.40;99.90;;;;;;5048800;28;20175;-78
2023/01/24 07:53:28;;;;;;;18.42;9.93;;;3.40;99.90;;;;;;5039662;28;20128;-77
2023/01/24 07:55:54;;;;;;;16.13;10.02;;;3.40;99.90;;;;;;5050294;28;20044;-78
2023/01/24 07:58:19;;;;;;;17.05;9.90;;;3.40;99.90;;;;;;5042822;28;20037;-78
2023/01/24 08:00:45;;;;;;;19.30;10.30;;;3.40;99.90;;;;;;5043701;28;20500;-76
2023/01/24 08:03:11;;;;;;;19.33;10.95;;;3.40;99.90;;;;;;5065297;28;20041;-78
2023/01/24 08:05:39;;;;;;;18.73;10.52;;;3.40;99.90;;;;;;5056050;28;20044;-77
2023/01/24 08:08:05;;;;;;;16.92;10.02;;;3.40;99.90;;;;;;5058163;28;20048;-76
2023/01/24 08:10:31;;;;;;;16.25;10.15;;;3.40;99.90;;;;;;5062373;28;20033;-78
2023/01/24 08:12:57;;;;;;;18.55;10.75;;;3.50;99.90;;;;;;5046670;28;20045;-77
2023/01/24 08:15:23;;;;;;;23.83;11.27;;;3.50;99.90;;;;;;5051207;28;20037;-77
2023/01/24 08:17:48;;;;;;;18.02;10.70;;;3.60;99.90;;;;;;5060617;28;20053;-78
2023/01/24 08:20:14;;;;;;;23.92;10.38;;;3.50;99.90;;;;;;5051354;28;20397;-78
2023/01/24 08:22:41;;;;;;;19.80;10.65;;;3.50;99.90;;;;;;5051079;28;20060;-77
2023/01/24 08:25:07;;;;;;;18.10;11.07;;;3.50;99.90;;;;;;5057137;28;20443;-77
2023/01/24 08:27:33;;;;;;;19.15;10.88;;;3.50;99.90;;;;;;5052635;28;20073;-77
2023/01/24 08:29:59;;;;;;;16.92;10.23;;;3.50;99.90;;;;;;5064101;28;20068;-77
2023/01/24 08:32:25;;;;;;;20.05;11.27;;;3.50;99.90;;;;;;5063499;28;20076;-77
2023/01/24 08:34:50;;;;;;;17.13;10.13;;;3.50;99.90;;;;;;5054899;28;20033;-77
2023/01/24 08:37:16;;;;;;;17.45;10.73;;;3.50;99.90;;;;;;5063190;28;20040;-77
2023/01/24 08:39:42;;;;;;;16.40;10.05;;;3.50;99.90;;;;;;5055997;28;20111;-77
2023/01/24 08:42:09;;;;;;;17.25;10.20;;;3.50;99.90;;;;;;5066884;28;20128;-77
2023/01/24 08:44:35;;;;;;;19.30;10.73;;;3.40;99.90;;;;;;5056919;28;20049;-77
2023/01/24 08:47:00;;;;;;;18.88;10.85;;;3.90;99.90;;;;;;5058659;28;20063;-77
2023/01/24 08:49:26;;;;;;;19.17;11.20;;;3.40;99.90;;;;;;5063699;28;20374;-77
2023/01/24 08:51:58;;;;;;;17.45;10.48;;;3.50;99.90;;;;;;5061346;28;20036;-77
2023/01/24 08:54:25;;;;;;;16.65;10.32;;;3.40;99.90;;;;;;5041492;28;20393;-77
2023/01/24 08:56:51;;;;;;;17.65;10.77;;;3.50;99.90;;;;;;5060260;28;20051;-77
2023/01/24 08:59:16;;;;;;;19.15;11.43;;;3.50;99.90;;;;;;5051653;28;20033;-77
2023/01/24 09:01:42;;;;;;;19.48;11.40;;;3.50;99.90;;;;;;5054019;28;20037;-77
2023/01/24 09:04:10;;;;;;;17.88;10.90;;;3.50;99.90;;;;;;5057341;28;20119;-77
2023/01/24 09:06:35;;;;;;;19.10;10.88;;;3.50;99.90;;;;;;5061169;28;20521;-77
2023/01/24 09:09:03;;;;;;;17.90;10.68;;;3.50;99.90;;;;;;5047046;28;20033;-77
2023/01/24 09:11:29;;;;;;;17.05;10.55;;;3.50;99.90;;;;;;5063044;28;20041;-77
2023/01/24 09:13:54;;;;;;;17.70;10.88;;;3.50;99.90;;;;;;5047135;28;20555;-77
2023/01/24 09:16:20;;;;;;;19.95;11.13;;;3.50;99.90;;;;;;5041671;28;20033;-78
2023/01/24 09:18:45;;;;;;;18.05;10.68;;;3.50;99.90;;;;;;5033798;28;20033;-77
2023/01/24 09:21:11;;;;;;;18.95;11.73;;;3.50;99.90;;;;;;5052002;28;20029;-77
2023/01/24 09:23:37;;;;;;;18.52;11.23;;;3.50;99.90;;;;;;5049749;28;20041;-77
2023/01/24 09:26:03;;;;;;;19.65;11.40;;;3.50;99.90;;;;;;5045564;28;20037;-77
2023/01/24 09:28:29;;;;;;;17.85;10.80;;;3.50;99.90;;;;;;5047738;28;20068;-77
2023/01/24 09:30:54;;;;;;;17.85;11.27;;;3.50;99.90;;;;;;5034113;28;20075;-78
2023/01/24 09:33:20;;;;;;;19.55;11.35;;;3.50;99.90;;;;;;5049476;28;20591;-77
2023/01/24 09:35:57;;;;;;;19.20;11.00;;;3.50;99.90;;;;;;5035456;28;20071;-76
2023/01/24 09:38:23;;;;;;;17.70;11.60;;;3.50;99.90;;;;;;5051687;28;20090;-78
2023/01/24 09:41:07;;;;;;;19.48;11.57;;;3.50;99.90;;;;;;5064915;28;20989;-77
2023/01/24 09:43:58;;;;;;;19.45;11.32;;;3.50;99.90;;;;;;5050981;28;20131;-77
2023/01/24 09:46:36;;;;;;;18.73;11.50;;;3.50;99.90;;;;;;5043855;28;20052;-76
2023/01/24 09:49:17;;;;;;;17.95;11.38;;;3.50;99.90;;;;;;5052418;28;20063;-76
2023/01/24 09:51:51;;;;;;;16.92;11.13;;;3.50;99.90;;;;;;5065564;28;20040;-77
2023/01/24 09:54:25;;;;;;;17.88;10.85;;;3.50;99.90;;;;;;5046831;28;20476;-77
2023/01/24 09:56:52;;;;;;;16.73;10.68;;;3.50;99.90;;;;;;5054870;28;20071;-77
2023/01/24 09:59:36;;;;;;;18.65;11.02;;;3.50;99.90;;;;;;5058505;28;20039;-77
2023/01/24 10:02:12;;;;;;;20.70;11.52;;;3.50;99.90;;;;;;5056647;28;20116;-77
2023/01/24 10:04:37;;;;;;;19.42;11.52;;;3.50;99.90;;;;;;5037874;28;20327;-78
2023/01/24 10:07:15;;;;;;;17.90;11.52;;;3.50;99.90;;;;;;5056439;28;20049;-77
2023/01/24 10:09:55;;;;;;;18.42;11.98;;;3.60;99.90;;;;;;5055662;28;20040;-77
2023/01/24 10:12:29;;;;;;;19.38;11.60;;;3.60;99.90;;;;;;5026088;28;20108;-77
2023/01/24 10:15:19;;;;;;;19.42;11.73;;;3.50;99.90;;;;;;5048330;28;20041;-77
2023/01/24 10:18:12;;;;;;;19.17;11.80;;;3.60;99.90;;;;;;5033292;28;20037;-77
2023/01/24 10:20:47;;;;;;;19.40;10.65;;;3.60;99.90;;;;;;5044301;28;20036;-77
2023/01/24 10:23:15;;;;;;;15.88;10.88;;;3.60;99.90;;;;;;5057983;28;20072;-76
2023/01/24 10:25:58;;;;;;;16.95;11.05;;;3.60;99.90;;;;;;5059282;28;20037;-77
2023/01/24 10:28:38;;;;;;;17.08;11.07;;;3.60;99.90;;;;;;5052267;28;20043;-78
2023/01/24 10:31:27;;;;;;;18.73;10.93;;;3.60;99.90;;;;;;5049781;28;20040;-76
2023/01/24 10:34:08;;;;;;;16.48;10.43;;;3.60;99.90;;;;;;5049069;28;20137;-77
2023/01/24 10:37:10;;;;;;;19.90;11.02;;;3.60;99.90;;;;;;5048695;28;20067;-77
2023/01/24 10:39:39;;;;;;;17.95;11.00;;;3.60;99.90;;;;;;5054291;28;20057;-77
2023/01/24 10:42:25;;;;;;;17.10;11.38;;;3.60;99.90;;;;;;5050226;28;20541;-78
2023/01/24 10:44:54;;;;;;;17.08;10.68;;;3.60;99.90;;;;;;5032890;28;20492;-78
2023/01/24 10:47:41;;;;;;;17.08;11.23;;;3.60;99.90;;;;;;5056975;28;20041;-77
2023/01/24 10:50:13;;;;;;;16.92;11.27;;;3.60;99.90;;;;;;5034150;28;20104;-78
2023/01/24 10:52:39;;;;;;;25.90;12.43;;;3.60;99.90;;;;;;5060197;28;20538;-77
2023/01/24 10:55:25;;;;;;;16.77;10.50;;;3.60;99.90;;;;;;5058101;28;20037;-78
2023/01/24 10:57:54;;;;;;;16.67;10.73;;;3.60;99.90;;;;;;5057460;28;20525;-77
2023/01/24 11:00:40;;;;;;;17.30;11.02;;;3.60;99.90;;;;;;5061439;28;20048;-77
2023/01/24 11:03:22;;;;;;;16.50;11.13;;;3.70;99.90;;;;;;5044341;28;20041;-76
2023/01/24 11:05:53;;;;;;;16.87;10.90;;;3.60;99.90;;;;;;5025970;28;20049;-77
2023/01/24 11:08:25;;;;;;;18.02;11.35;;;3.70;99.90;;;;;;5054138;28;20037;-77
2023/01/24 11:10:56;;;;;;;16.77;10.20;;;3.70;99.90;;;;;;5057986;28;20063;-77
2023/01/24 11:13:39;;;;;;;17.38;10.95;;;3.70;99.90;;;;;;5056245;28;20384;-78
2023/01/24 11:16:17;;;;;;;17.60;10.15;;;3.70;99.90;;;;;;5059166;28;20082;-77
2023/01/24 11:18:58;;;;;;;16.55;10.13;;;3.70;99.90;;;;;;5035300;28;20037;-76
2023/01/24 11:21:25;;;;;;;16.27;10.48;;;3.70;99.90;;;;;;5050183;28;20091;-77
2023/01/24 11:24:06;;;;;;;16.25;10.20;;;3.70;99.90;;;;;;5036201;28;20037;-77
2023/01/24 11:26:37;;;;;;;16.60;11.30;;;3.70;99.90;;;;;;5043393;28;20041;-77
2023/01/24 11:29:24;;;;;;;17.63;10.98;;;3.70;99.90;;;;;;5057589;28;20041;-77
2023/01/24 11:32:30;;;;;;;17.52;11.18;;;3.80;99.90;;;;;;5036549;28;20044;-77
2023/01/24 11:35:10;;;;;;;18.17;11.07;;;3.80;99.90;;;;;;5052555;28;20040;-77
2023/01/24 11:38:02;;;;;;;15.80;10.57;;;3.80;99.90;;;;;;5038130;28;20576;-77
2023/01/24 11:40:41;;;;;;;19.35;11.13;;;3.80;99.90;;;;;;5043206;28;20040;-77
2023/01/24 11:43:43;;;;;;;17.25;10.13;;;3.80;99.90;;;;;;5051224;28;20113;-77
2023/01/24 11:46:42;;;;;;;16.27;10.60;;;3.80;99.90;;;;;;5059970;28;20052;-77
2023/01/24 11:49:27;;;;;;;15.93;10.25;;;3.80;99.90;;;;;;5060163;28;20044;-77
2023/01/24 11:52:08;;;;;;;18.02;10.52;;;3.80;99.90;;;;;;5049185;28;20040;-77
2023/01/24 11:54:40;;;;;;;18.08;10.32;;;3.80;99.90;;;;;;5041826;28;20500;-77
2023/01/24 11:57:19;;;;;;;15.85;10.32;;;3.70;99.90;;;;;;5030926;28;20043;-77
2023/01/24 12:00:17;;;;;;;16.95;10.50;;;3.80;99.90;;;;;;5045231;28;20491;-77
2023/01/24 12:03:21;;;;;;;15.77;10.18;;;3.70;99.90;;;;;;5062094;28;20047;-78
2023/01/24 12:06:11;;;;;;;16.27;10.85;;;3.80;99.90;;;;;;5041244;28;20446;-78
2023/01/24 12:08:53;;;;;;;17.23;10.90;;;3.80;99.90;;;;;;5053290;28;20416;-77
2023/01/24 12:12:07;;;;;;;16.17;10.67;;;3.90;99.90;;;;;;5050330;28;20040;-78
2023/01/24 12:14:51;;;;;;;15.57;10.32;;;3.90;99.90;;;;;;5057886;28;20355;-77
2023/01/24 12:17:37;;;;;;;17.25;10.68;;;3.90;99.90;;;;;;5055593;28;20079;-78
2023/01/24 12:20:24;;;;;;;15.75;9.80;;;3.90;99.90;;;;;;5058594;28;20037;-78
2023/01/24 12:22:53;;;;;;;16.27;10.05;;;3.90;99.90;;;;;;5049122;28;20052;-77
2023/01/24 12:25:30;;;;;;;14.52;9.55;;;3.90;99.90;;;;;;5060102;28;20086;-77
2023/01/24 12:27:59;;;;;;;15.77;10.02;;;4.60;99.90;;;;;;5054264;28;20041;-77
2023/01/24 12:30:40;;;;;;;14.80;10.07;;;3.90;99.90;;;;;;5063584;28;20044;-77
2023/01/24 12:33:17;;;;;;;16.75;10.52;;;3.80;99.90;;;;;;5069409;28;20044;-78
2023/01/24 12:35:47;;;;;;;16.58;9.80;;;4.10;99.90;;;;;;5050601;28;20047;-77
2023/01/24 12:38:30;;;;;;;22.35;10.07;;;3.80;99.90;;;;;;5056824;28;20028;-77
2023/01/24 12:40:58;;;;;;;;;;;3.80;99.90;;;;;;5062038;28;20041;-77
2023/01/24 12:43:45;;;;;;;14.70;9.30;;;3.90;99.90;;;;;;5054572;28;19936;-78
2023/01/24 12:46:18;;;;;;;15.98;9.80;;;3.90;99.90;;;;;;5062148;28;20040;-77
2023/01/24 12:49:11;;;;;;;16.02;10.05;;;3.80;99.90;;;;;;5057395;28;20043;-80
2023/01/24 12:51:44;;;;;;;15.48;9.73;;;3.90;99.90;;;;;;5046305;28;20041;-77
2023/01/24 12:54:42;;;;;;;14.13;9.75;;;4.10;99.90;;;;;;5049007;28;20056;-76
2023/01/24 12:57:34;;;;;;;13.50;9.25;;;3.90;99.90;;;;;;5004703;28;20060;-77
2023/01/24 13:00:00;;;;;;;15.13;9.27;;;3.90;99.90;;;;;;5033200;28;20526;-77
2023/01/24 13:02:29;;;;;;;16.15;10.10;;;4.00;99.90;;;;;;5054189;28;20131;-77
2023/01/24 13:05:18;;;;;;;15.52;9.63;;;4.00;99.90;;;;;;5059216;28;20045;-78
2023/01/24 13:08:01;;;;;;;16.05;10.07;;;4.00;99.90;;;;;;5055808;28;20497;-77
2023/01/24 13:11:12;;;;;;;14.57;9.25;;;4.00;99.90;;;;;;5046587;28;20520;-77
2023/01/24 13:13:46;;;;;;;14.73;9.68;;;4.00;99.90;;;;;;5009559;28;20192;-77
2023/01/24 13:16:23;;;;;;;15.15;9.80;;;4.00;99.90;;;;;;5054088;28;20405;-77
2023/01/24 13:19:05;;;;;;;15.23;9.57;;;4.00;99.90;;;;;;5057836;28;20075;-78
2023/01/24 13:21:51;;;;;;;15.40;9.90;;;4.00;99.90;;;;;;5060645;28;20082;-77
2023/01/24 13:24:48;;;;;;;16.60;9.80;;;4.00;99.90;;;;;;5054592;28;20500;-77
2023/01/24 13:27:23;;;;;;;16.05;10.10;;;4.00;99.90;;;;;;5049786;28;20052;-77
2023/01/24 13:30:22;;;;;;;14.18;9.57;;;4.00;99.90;;;;;;5067137;28;20488;-77
2023/01/24 13:32:50;;;;;;;15.90;10.35;;;4.00;99.90;;;;;;5067134;28;20045;-77
2023/01/24 13:35:19;;;;;;;13.07;9.40;;;4.00;99.90;;;;;;5040755;28;20032;-77
2023/01/24 13:38:02;;;;;;;15.85;9.82;;;4.00;99.90;;;;;;5050868;28;20378;-77
2023/01/24 13:40:34;;;;;;;14.98;9.82;;;4.00;99.90;;;;;;5055029;28;20076;-77
2023/01/24 13:43:01;;;;;;;16.42;9.77;;;4.00;99.90;;;;;;5060378;28;20048;-76